createdAt,value
2018-11-28T00:01:34.331Z,34.43
2018-11-28T00:04:03.064Z,36.67
2018-11-28T00:06:31.663Z,38.37
2018-11-28T00:09:00.199Z,44.23
2018-11-28T00:11:28.720Z,38.10
2018-11-28T00:13:57.319Z,32.27
2018-11-28T00:16:26.037Z,34.23
2018-11-28T00:18:54.554Z,32.80
2018-11-28T00:21:22.998Z,38.90
2018-11-28T00:23:51.494Z,35.83
2018-11-28T00:26:20.020Z,32.67
2018-11-28T00:28:48.445Z,35.20
2018-11-28T00:31:16.385Z,38.23
2018-11-28T00:33:44.373Z,35.27
2018-11-28T00:36:12.313Z,28.87
2018-11-28T00:38:40.539Z,29.57
2018-11-28T00:41:08.566Z,32.57
2018-11-28T00:43:36.494Z,27.83
2018-11-28T00:46:05.032Z,28.67
2018-11-28T00:48:33.018Z,26.73
2018-11-28T00:51:00.955Z,19.73
2018-11-28T00:53:28.865Z,23.40
2018-11-28T00:55:56.805Z,21.83
2018-11-28T00:58:24.721Z,20.10
2018-11-28T01:00:52.665Z,22.30
2018-11-28T01:03:20.607Z,16.60
2018-11-28T01:05:48.525Z,17.83
2018-11-28T01:08:16.590Z,15.83
2018-11-28T01:10:44.538Z,16.80
2018-11-28T01:13:12.482Z,16.57
2018-11-28T01:15:40.393Z,13.90
2018-11-28T01:18:08.337Z,14.17
2018-11-28T01:20:36.241Z,14.53
2018-11-28T01:23:04.202Z,15.63
2018-11-28T01:25:32.171Z,11.53
2018-11-28T01:28:00.083Z,15.33
2018-11-28T01:30:28.008Z,15.03
2018-11-28T01:32:55.956Z,17.73
2018-11-28T01:35:23.873Z,13.57
2018-11-28T01:37:51.795Z,12.70
2018-11-28T01:40:21.315Z,17.60
2018-11-28T01:42:49.298Z,14.90
2018-11-28T01:45:19.653Z,19.33
2018-11-28T01:47:48.154Z,13.27
2018-11-28T01:50:18.474Z,15.90
2018-11-28T01:52:47.631Z,15.70
2018-11-28T01:55:17.182Z,13.67
2018-11-28T01:57:45.159Z,13.63
2018-11-28T02:00:21.365Z,14.63
2018-11-28T02:02:50.955Z,14.77
2018-11-28T02:05:18.889Z,15.80
2018-11-28T02:07:46.823Z,17.20
2018-11-28T02:10:15.725Z,13.20
2018-11-28T02:12:43.781Z,14.37
2018-11-28T02:15:13.043Z,14.60
2018-11-28T02:17:41.012Z,16.93
2018-11-28T02:20:10.218Z,11.00
2018-11-28T02:22:38.259Z,15.10
2018-11-28T02:25:07.534Z,17.57
2018-11-28T02:27:35.456Z,11.47
2018-11-28T02:30:04.754Z,14.87
2018-11-28T02:32:32.670Z,14.40
2018-11-28T02:35:00.578Z,14.70
2018-11-28T02:37:29.049Z,14.00
2018-11-28T02:39:57.305Z,13.50
2018-11-28T02:42:25.185Z,14.80
2018-11-28T02:44:53.127Z,16.07
2018-11-28T02:47:21.020Z,14.13
2018-11-28T02:49:49.014Z,13.30
2018-11-28T02:52:16.986Z,16.77
2018-11-28T02:54:45.472Z,12.47
2018-11-28T02:57:13.785Z,13.20
2018-11-28T02:59:42.124Z,10.20
2018-11-28T03:02:10.593Z,8.93
2018-11-28T03:04:38.989Z,10.17
2018-11-28T03:07:06.975Z,10.70
2018-11-28T03:09:34.943Z,8.43
2018-11-28T03:12:02.875Z,12.97
2018-11-28T03:14:30.818Z,11.00
2018-11-28T03:16:58.720Z,8.40
2018-11-28T03:19:26.610Z,13.37
2018-11-28T03:21:54.631Z,10.90
2018-11-28T03:24:22.547Z,12.23
2018-11-28T03:26:50.450Z,11.07
2018-11-28T03:29:18.384Z,11.17
2018-11-28T03:31:46.309Z,10.87
2018-11-28T03:34:14.224Z,10.13
2018-11-28T03:36:42.201Z,10.87
2018-11-28T03:39:10.204Z,12.13
2018-11-28T03:41:38.104Z,10.87
2018-11-28T03:44:06.096Z,13.80
2018-11-28T03:46:34.585Z,13.27
2018-11-28T03:49:03.100Z,15.87
2018-11-28T03:51:31.392Z,15.23
2018-11-28T03:53:59.837Z,14.30
2018-11-28T03:56:29.457Z,14.40
2018-11-28T03:58:57.867Z,15.37
2018-11-28T04:01:26.296Z,19.33
2018-11-28T04:03:54.604Z,23.87
2018-11-28T04:06:23.697Z,16.73
2018-11-28T04:08:52.158Z,21.40
2018-11-28T04:11:20.604Z,20.67
2018-11-28T04:13:49.143Z,19.53
2018-11-28T04:16:17.589Z,20.40
2018-11-28T04:18:46.245Z,22.90
2018-11-28T04:21:14.778Z,25.23
2018-11-28T04:23:43.438Z,29.33
2018-11-28T04:26:11.932Z,23.33
2018-11-28T04:28:40.233Z,24.87
2018-11-28T04:31:08.685Z,27.53
2018-11-28T04:33:36.961Z,35.40
2018-11-28T04:36:05.487Z,29.53
2018-11-28T04:38:33.717Z,24.80
2018-11-28T04:41:02.159Z,28.10
2018-11-28T04:43:30.488Z,34.60
2018-11-28T04:45:58.955Z,31.23
2018-11-28T04:48:27.230Z,32.30
2018-11-28T04:50:55.716Z,31.90
2018-11-28T04:53:24.007Z,26.60
2018-11-28T04:55:52.277Z,28.17
2018-11-28T04:58:20.983Z,31.50
2018-11-28T05:00:49.412Z,33.10
2018-11-28T05:03:18.117Z,27.80
2018-11-28T05:05:46.440Z,37.53
2018-11-28T05:08:15.107Z,32.00
2018-11-28T05:10:43.519Z,31.73
2018-11-28T05:13:11.837Z,35.50
2018-11-28T05:15:40.299Z,33.23
2018-11-28T05:18:08.777Z,32.50
2018-11-28T05:20:37.284Z,37.63
2018-11-28T05:23:06.765Z,41.83
2018-11-28T05:25:35.335Z,41.63
2018-11-28T05:28:03.894Z,33.27
2018-11-28T05:30:32.715Z,34.30
2018-11-28T05:33:01.440Z,37.77
2018-11-28T05:35:32.864Z,38.23
2018-11-28T05:38:01.807Z,37.60
2018-11-28T05:40:30.220Z,41.37
2018-11-28T05:42:58.741Z,39.53
2018-11-28T05:45:26.676Z,35.47
2018-11-28T05:47:54.571Z,36.60
2018-11-28T05:50:23.549Z,45.60
2018-11-28T05:52:51.650Z,38.60
2018-11-28T05:55:21.400Z,46.97
2018-11-28T05:57:50.101Z,38.00
2018-11-28T06:00:27.376Z,35.63
2018-11-28T06:02:55.625Z,41.67
2018-11-28T06:05:24.021Z,36.60
2018-11-28T06:07:53.442Z,46.97
2018-11-28T06:10:21.850Z,36.73
2018-11-28T06:12:51.096Z,34.73
2018-11-28T06:15:20.210Z,37.00
2018-11-28T06:17:50.969Z,34.10
2018-11-28T06:20:19.536Z,34.47
2018-11-28T06:22:48.101Z,34.57
2018-11-28T06:25:17.505Z,34.37
2018-11-28T06:27:46.796Z,40.23
2018-11-28T06:30:16.424Z,35.57
2018-11-28T06:32:50.840Z,41.43
2018-11-28T06:35:13.571Z,37.20
2018-11-28T06:37:42.255Z,31.60
2018-11-28T06:40:15.559Z,46.43
2018-11-28T06:42:44.977Z,39.77
2018-11-28T06:45:14.425Z,34.60
2018-11-28T06:47:42.987Z,35.03
2018-11-28T06:50:13.816Z,38.33
2018-11-28T06:52:42.862Z,34.50
2018-11-28T06:55:15.119Z,37.70
2018-11-28T06:57:44.904Z,38.80
2018-11-28T07:00:15.825Z,41.77
2018-11-28T07:02:44.767Z,34.13
2018-11-28T07:05:13.404Z,37.67
2018-11-28T07:07:42.546Z,38.87
2018-11-28T07:10:14.014Z,44.93
2018-11-28T07:12:42.559Z,36.77
2018-11-28T07:15:12.707Z,38.53
2018-11-28T07:17:41.591Z,34.07
2018-11-28T07:20:11.464Z,38.90
2018-11-28T07:22:39.934Z,36.53
2018-11-28T07:25:12.796Z,33.07
2018-11-28T07:27:45.151Z,33.03
2018-11-28T07:30:12.325Z,34.00
2018-11-28T07:32:40.832Z,41.17
2018-11-28T07:35:10.023Z,34.33
2018-11-28T07:37:39.498Z,32.47
2018-11-28T07:40:12.279Z,43.97
2018-11-28T07:42:41.506Z,38.47
2018-11-28T07:45:11.259Z,36.73
2018-11-28T07:47:39.720Z,38.97
2018-11-28T07:50:09.343Z,37.50
2018-11-28T07:52:37.956Z,31.87
2018-11-28T07:55:08.286Z,27.80
2018-11-28T07:57:37.396Z,30.90
2018-11-28T08:00:09.221Z,31.87
2018-11-28T08:02:37.783Z,32.90
2018-11-28T08:05:06.967Z,40.20
2018-11-28T08:07:35.317Z,32.17
2018-11-28T08:10:04.332Z,36.10
2018-11-28T08:12:33.420Z,31.90
2018-11-28T08:17:54.092Z,31.50
2018-11-28T08:20:22.546Z,31.00
2018-11-28T08:22:51.006Z,36.90
2018-11-28T08:25:19.332Z,29.17
2018-11-28T08:27:48.685Z,30.53
2018-11-28T08:30:23.050Z,29.43
2018-11-28T08:32:51.668Z,30.07
2018-11-28T08:35:20.040Z,30.60
2018-11-28T08:37:49.608Z,27.90
2018-11-28T08:40:20.304Z,31.33
2018-11-28T08:42:48.445Z,26.63
2018-11-28T08:45:18.032Z,31.37
2018-11-28T08:47:48.283Z,26.50
2018-11-28T08:50:21.521Z,28.40
2018-11-28T08:52:49.949Z,28.87
2018-11-28T08:55:18.432Z,29.00
2018-11-28T08:57:46.920Z,26.53
2018-11-28T09:00:16.958Z,27.87
2018-11-28T09:02:46.233Z,38.50
2018-11-28T09:05:14.758Z,22.77
2018-11-28T09:07:43.524Z,25.77
2018-11-28T09:10:13.206Z,21.43
2018-11-28T09:12:42.293Z,26.53
2018-11-28T09:15:12.287Z,32.07
2018-11-28T09:17:40.981Z,22.23
2018-11-28T09:20:12.646Z,23.13
2018-11-28T09:22:42.151Z,25.07
2018-11-28T09:25:12.658Z,20.27
2018-11-28T09:27:41.389Z,26.10
2018-11-28T09:30:11.365Z,21.40
2018-11-28T09:32:40.181Z,21.30
2018-11-28T09:35:09.369Z,23.23
2018-11-28T09:37:37.589Z,23.00
2018-11-28T09:40:09.527Z,21.17
2018-11-28T09:42:38.374Z,17.53
2018-11-28T09:45:08.607Z,17.37
2018-11-28T09:47:37.674Z,19.17
2018-11-28T09:50:10.016Z,20.53
2018-11-28T09:52:38.568Z,18.27
2018-11-28T09:55:09.073Z,17.23
2018-11-28T09:57:37.681Z,21.90
2018-11-28T10:00:15.367Z,17.33
2018-11-28T10:02:44.109Z,33.07
2018-11-28T10:05:24.043Z,21.53
2018-11-28T10:07:52.348Z,55.60
2018-11-28T10:10:20.739Z,21.00
2018-11-28T10:12:49.310Z,13.70
2018-11-28T10:15:19.548Z,15.67
2018-11-28T10:17:48.166Z,14.10
2018-11-28T10:20:17.386Z,15.40
2018-11-28T10:22:46.113Z,14.77
2018-11-28T10:25:15.950Z,15.73
2018-11-28T10:27:46.337Z,13.57
2018-11-28T10:30:22.008Z,14.53
2018-11-28T10:32:51.205Z,13.47
2018-11-28T10:35:19.881Z,11.00
2018-11-28T10:37:48.424Z,13.20
2018-11-28T10:40:17.729Z,13.83
2018-11-28T10:42:47.026Z,14.97
2018-11-28T10:45:16.831Z,13.57
2018-11-28T10:47:45.453Z,13.03
2018-11-28T10:50:14.974Z,13.93
2018-11-28T10:52:43.647Z,13.30
2018-11-28T10:55:20.718Z,11.43
2018-11-28T10:57:49.095Z,12.03
2018-11-28T11:00:23.822Z,14.27
2018-11-28T11:02:58.547Z,12.90
2018-11-28T11:05:33.359Z,12.10
2018-11-28T11:08:07.361Z,10.60
2018-11-28T11:10:41.322Z,10.83
2018-11-28T11:13:15.461Z,11.67
2018-11-28T11:15:48.490Z,13.67
2018-11-28T11:18:17.165Z,13.30
2018-11-28T11:20:45.625Z,10.90
2018-11-28T11:23:14.323Z,10.13
2018-11-28T11:25:42.780Z,12.20
2018-11-28T11:28:11.489Z,12.10
2018-11-28T11:30:41.072Z,11.90
2018-11-28T11:33:09.922Z,12.80
2018-11-28T11:35:38.146Z,12.63
2018-11-28T11:38:06.864Z,10.17
2018-11-28T11:40:35.653Z,12.53
2018-11-28T11:43:04.261Z,13.80
2018-11-28T11:45:32.959Z,10.20
2018-11-28T11:48:02.639Z,12.73
2018-11-28T11:50:33.588Z,13.60
2018-11-28T11:53:02.287Z,12.93
2018-11-28T11:55:30.917Z,11.87
2018-11-28T11:57:59.279Z,14.37
2018-11-28T12:03:20.819Z,13.90
2018-11-28T12:05:53.429Z,9.47
2018-11-28T12:08:22.265Z,14.00
2018-11-28T12:10:50.672Z,11.10
2018-11-28T12:13:19.313Z,13.73
2018-11-28T12:15:48.153Z,11.67
2018-11-28T12:18:16.760Z,13.57
2018-11-28T12:20:47.376Z,14.60
2018-11-28T12:23:15.988Z,12.27
2018-11-28T12:25:44.887Z,14.67
2018-11-28T12:28:14.073Z,11.37
2018-11-28T12:30:42.469Z,14.47
2018-11-28T12:33:11.044Z,13.17
2018-11-28T12:35:39.769Z,15.77
2018-11-28T12:38:08.092Z,12.10
2018-11-28T12:40:36.681Z,14.47
2018-11-28T12:43:06.891Z,13.67
2018-11-28T12:45:35.593Z,13.50
2018-11-28T12:48:03.897Z,11.47
2018-11-28T12:50:32.343Z,11.27
2018-11-28T12:53:01.663Z,13.23
2018-11-28T12:55:31.452Z,12.67
2018-11-28T12:58:00.065Z,10.77
2018-11-28T13:00:30.677Z,9.43
2018-11-28T13:02:59.444Z,12.03
2018-11-28T13:05:28.131Z,9.53
2018-11-28T13:07:56.928Z,11.27
2018-11-28T13:10:32.995Z,8.97
2018-11-28T13:13:02.170Z,12.40
2018-11-28T13:15:30.840Z,12.97
2018-11-28T13:17:59.284Z,11.50
2018-11-28T13:20:28.703Z,9.63
2018-11-28T13:22:57.214Z,10.87
2018-11-28T13:25:27.400Z,11.33
2018-11-28T13:27:56.718Z,9.00
2018-11-28T13:30:26.221Z,11.73
2018-11-28T13:32:55.056Z,11.07
2018-11-28T13:35:42.879Z,8.67
2018-11-28T13:38:12.306Z,11.60
2018-11-28T13:40:41.178Z,9.87
2018-11-28T13:43:09.808Z,11.33
2018-11-28T13:45:40.483Z,9.77
2018-11-28T13:48:10.090Z,11.73
2018-11-28T13:50:38.859Z,11.37
2018-11-28T13:53:09.326Z,9.87
2018-11-28T13:56:57.286Z,10.53
2018-11-28T13:58:25.029Z,11.80
2018-11-28T14:00:53.455Z,10.87
2018-11-28T14:03:21.987Z,9.40
2018-11-28T14:05:51.108Z,7.43
2018-11-28T14:08:20.249Z,7.93
2018-11-28T14:10:49.730Z,11.03
2018-11-28T14:13:22.227Z,9.80
2018-11-28T14:15:50.721Z,8.00
2018-11-28T14:18:19.821Z,8.40
2018-11-28T14:20:49.284Z,9.33
2018-11-28T14:23:17.686Z,8.00
2018-11-28T14:25:46.243Z,9.40
2018-11-28T14:28:14.801Z,10.40
2018-11-28T14:30:44.007Z,9.90
2018-11-28T14:33:14.632Z,10.23
2018-11-28T14:35:43.863Z,11.40
2018-11-28T14:38:14.547Z,11.50
2018-11-28T14:40:45.971Z,8.40
2018-11-28T14:43:14.716Z,8.33
2018-11-28T14:45:47.546Z,9.60
2018-11-28T14:48:17.500Z,9.93
2018-11-28T14:50:46.652Z,9.87
2018-11-28T14:53:15.965Z,8.47
2018-11-28T14:55:44.436Z,11.53
2018-11-28T14:58:13.313Z,8.63
2018-11-28T15:00:47.289Z,10.00
2018-11-28T15:03:17.179Z,12.60
2018-11-28T15:06:07.377Z,10.40
2018-11-28T15:08:36.699Z,10.70
2018-11-28T15:11:09.111Z,10.53
2018-11-28T15:13:38.047Z,10.67
2018-11-28T15:16:08.455Z,10.57
2018-11-28T15:18:38.020Z,11.03
2018-11-28T15:21:08.687Z,10.50
2018-11-28T15:23:38.826Z,10.00
2018-11-28T15:26:07.681Z,11.47
2018-11-28T15:28:37.187Z,12.20
2018-11-28T15:31:07.945Z,12.70
2018-11-28T15:33:39.952Z,12.90
2018-11-28T15:36:11.681Z,8.97
2018-11-28T15:38:43.242Z,11.97
2018-11-28T15:41:12.648Z,12.97
2018-11-28T15:43:41.420Z,9.20
2018-11-28T15:46:14.795Z,10.73
2018-11-28T15:48:41.742Z,10.80
2018-11-28T15:51:10.381Z,11.03
2018-11-28T15:53:47.669Z,11.27
2018-11-28T15:56:18.244Z,13.00
2018-11-28T15:58:47.701Z,11.83
2018-11-28T16:01:16.972Z,12.90
2018-11-28T16:04:53.493Z,11.77
2018-11-28T16:07:24.253Z,13.80
2018-11-28T16:09:59.473Z,13.53
2018-11-28T16:12:32.566Z,12.90
2018-11-28T16:15:04.385Z,11.13
2018-11-28T16:17:37.021Z,11.03
2018-11-28T16:20:09.640Z,12.83
2018-11-28T16:22:38.636Z,9.63
2018-11-28T16:25:10.608Z,10.70
2018-11-28T16:27:44.327Z,10.50
2018-11-28T16:30:15.821Z,11.27
2018-11-28T16:32:46.273Z,10.77
2018-11-28T16:35:17.096Z,12.63
2018-11-28T16:37:47.244Z,12.03
2018-11-28T16:40:16.632Z,12.80
2018-11-28T16:42:47.660Z,8.33
2018-11-28T16:45:22.565Z,10.73
2018-11-28T16:47:52.952Z,12.10
2018-11-28T16:50:26.627Z,12.30
2018-11-28T16:52:56.709Z,10.70
2018-11-28T16:55:30.450Z,10.00
2018-11-28T16:58:01.522Z,13.53
2018-11-28T17:00:33.781Z,11.73
2018-11-28T17:03:04.065Z,15.80
2018-11-28T17:05:35.503Z,11.90
2018-11-28T17:08:08.784Z,13.93
2018-11-28T17:10:39.635Z,13.97
2018-11-28T17:13:08.736Z,15.07
2018-11-28T17:15:40.470Z,15.47
2018-11-28T17:18:11.673Z,14.23
2018-11-28T17:20:42.692Z,13.20
2018-11-28T17:23:14.243Z,12.27
2018-11-28T17:25:46.427Z,13.63
2018-11-28T17:28:17.635Z,11.43
2018-11-28T17:30:58.162Z,14.07
2018-11-28T17:33:30.314Z,11.20
2018-11-28T17:36:00.829Z,15.60
2018-11-28T17:38:32.158Z,13.53
2018-11-28T17:41:01.973Z,17.23
2018-11-28T17:43:32.049Z,15.43
2018-11-28T17:46:01.316Z,16.73
2018-11-28T17:48:30.469Z,14.03
2018-11-28T17:51:00.024Z,14.80
2018-11-28T17:53:33.260Z,12.30
2018-11-28T17:56:02.868Z,16.40
2018-11-28T17:58:34.062Z,16.80
2018-11-28T18:01:06.383Z,14.50
2018-11-28T18:03:36.919Z,11.83
2018-11-28T18:06:07.922Z,15.40
2018-11-28T18:08:41.139Z,16.03
2018-11-28T18:11:15.216Z,14.47
2018-11-28T18:13:47.550Z,17.07
2018-11-28T18:16:21.454Z,12.70
2018-11-28T18:18:53.521Z,16.50
2018-11-28T18:21:24.306Z,13.17
2018-11-28T18:23:54.346Z,13.70
2018-11-28T18:26:27.213Z,12.17
2018-11-28T18:29:00.194Z,15.77
2018-11-28T18:31:31.893Z,11.03
2018-11-28T18:34:02.786Z,13.97
2018-11-28T18:36:33.367Z,14.37
2018-11-28T18:39:04.812Z,18.00
2018-11-28T18:41:35.377Z,13.77
2018-11-28T18:44:09.838Z,13.43
2018-11-28T18:46:40.582Z,16.10
2018-11-28T18:49:11.274Z,13.33
2018-11-28T18:51:55.727Z,18.20
2018-11-28T18:54:40.010Z,14.53
2018-11-28T18:57:22.932Z,12.97
2018-11-28T18:59:58.993Z,13.67
2018-11-28T19:02:33.595Z,14.40
2018-11-28T19:05:08.251Z,13.13
2018-11-28T19:07:40.103Z,12.17
2018-11-28T19:10:13.183Z,14.67
2018-11-28T19:12:44.960Z,14.23
2018-11-28T19:15:18.074Z,15.33
2018-11-28T19:17:50.395Z,15.77
2018-11-28T19:20:37.117Z,16.67
2018-11-28T19:23:08.283Z,15.10
2018-11-28T19:25:40.594Z,15.73
2018-11-28T19:28:13.044Z,15.57
2018-11-28T19:30:49.091Z,16.67
2018-11-28T19:33:25.004Z,14.47
2018-11-28T19:35:55.023Z,13.30
2018-11-28T19:38:26.975Z,14.77
2018-11-28T19:41:03.073Z,16.50
2018-11-28T19:43:34.187Z,14.20
2018-11-28T19:46:05.875Z,14.40
2018-11-28T19:48:38.153Z,16.83
2018-11-28T19:51:10.200Z,16.20
2018-11-28T19:53:41.968Z,12.03
2018-11-28T19:56:12.949Z,12.10
2018-11-28T19:58:45.156Z,14.07
2018-11-28T20:01:19.431Z,11.30
2018-11-28T20:06:35.327Z,13.90
2018-11-28T20:09:16.462Z,17.67
2018-11-28T20:11:50.725Z,15.77
2018-11-28T20:14:22.503Z,17.03
2018-11-28T20:16:54.150Z,12.70
2018-11-28T20:19:26.748Z,14.00
2018-11-28T20:21:58.877Z,12.07
2018-11-28T20:24:32.400Z,15.87
2018-11-28T20:27:02.815Z,14.63
2018-11-28T20:29:34.541Z,15.63
2018-11-28T20:32:06.052Z,16.40
2018-11-28T20:34:39.522Z,13.80
2018-11-28T20:37:11.019Z,11.30
2018-11-28T20:39:41.218Z,14.17
2018-11-28T20:42:10.508Z,14.77
2018-11-28T20:44:41.764Z,13.53
2018-11-28T20:47:15.658Z,11.20
2018-11-28T20:49:47.615Z,15.73
2018-11-28T20:52:18.087Z,14.40
2018-11-28T20:54:49.461Z,16.13
2018-11-28T20:57:19.913Z,17.93
2018-11-28T20:59:49.200Z,13.63
2018-11-28T21:02:20.922Z,13.93
2018-11-28T21:04:51.161Z,13.00
2018-11-28T21:07:22.489Z,15.97
2018-11-28T21:10:00.312Z,17.63
2018-11-28T21:12:30.514Z,15.10
2018-11-28T21:15:04.145Z,12.77
2018-11-28T21:17:35.250Z,14.53
2018-11-28T21:20:10.070Z,14.03
2018-11-28T21:22:41.606Z,15.03
2018-11-28T21:25:14.734Z,12.33
2018-11-28T21:27:45.645Z,13.83
2018-11-28T21:30:18.302Z,12.63
2018-11-28T21:32:47.606Z,15.10
2018-11-28T21:35:20.341Z,13.70
2018-11-28T21:37:53.676Z,13.70
2018-11-28T21:40:22.626Z,11.90
2018-11-28T21:42:54.295Z,11.93
2018-11-28T21:45:26.714Z,12.50
2018-11-28T21:47:57.320Z,10.30
2018-11-28T21:50:26.234Z,11.77
2018-11-28T21:52:55.313Z,11.47
2018-11-28T21:55:24.993Z,10.80
2018-11-28T21:57:55.837Z,12.47
2018-11-28T22:00:26.720Z,12.50
2018-11-28T22:02:55.332Z,13.07
2018-11-28T22:05:23.977Z,15.57
2018-11-28T22:07:52.619Z,13.60
2018-11-28T22:10:23.896Z,14.30
2018-11-28T22:12:52.682Z,11.73
2018-11-28T22:15:21.326Z,16.80
2018-11-28T22:17:52.886Z,13.20
2018-11-28T22:20:22.355Z,13.80
2018-11-28T22:22:51.336Z,14.17
2018-11-28T22:25:25.307Z,14.13
2018-11-28T22:27:54.785Z,10.67
2018-11-28T22:30:26.670Z,12.30
2018-11-28T22:32:56.373Z,14.23
2018-11-28T22:35:26.332Z,15.03
2018-11-28T22:37:55.670Z,12.47
2018-11-28T22:40:26.260Z,13.07
2018-11-28T22:42:55.089Z,12.23
2018-11-28T22:45:25.456Z,12.43
2018-11-28T22:47:54.128Z,16.23
2018-11-28T22:50:22.594Z,16.23
2018-11-28T22:52:51.300Z,13.93
2018-11-28T22:55:19.784Z,16.53
2018-11-28T22:57:48.252Z,14.20
2018-11-28T23:00:29.011Z,15.07
2018-11-28T23:03:00.360Z,11.87
2018-11-28T23:05:32.741Z,13.50
2018-11-28T23:08:02.050Z,15.60
2018-11-28T23:10:30.493Z,16.17
2018-11-28T23:12:58.573Z,12.80
2018-11-28T23:15:27.049Z,13.97
2018-11-28T23:17:55.624Z,12.87
2018-11-28T23:20:24.037Z,14.63
2018-11-28T23:22:52.617Z,12.97
2018-11-28T23:25:20.946Z,13.70
2018-11-28T23:27:49.344Z,12.80
2018-11-28T23:30:18.993Z,10.47
2018-11-28T23:32:47.794Z,15.23
2018-11-28T23:35:15.973Z,12.67
2018-11-28T23:37:45.075Z,16.13
2018-11-28T23:40:15.071Z,13.53
2018-11-28T23:42:43.645Z,12.20
2018-11-28T23:45:12.852Z,13.60
2018-11-28T23:47:41.151Z,14.30
2018-11-28T23:50:12.393Z,11.17
2018-11-28T23:52:40.793Z,12.47
2018-11-28T23:55:14.774Z,16.13
2018-11-28T23:57:43.353Z,15.63
